Pagina principale
METAR-TAF:

METAR-TAF

Aeroporti :

Aeroporto di Pantelleria

Pantelleria, Italia

latitudine: 36-49N, longitudine: 011-58E, altezza: 191 m

Osservazione

Il bollettino è stato emesso 5 ore e 34 minuti fa, alle 17:50 UTC
Vento 7 kt da ovest/nord-ovest
Temperature 16°C
Umidità 82%
Pressione 1018 hPa
Visibilità 10 km o più
Poco nuvoloso ad un'altezza di 2000 ft

METAR: LICG 151750Z 29007KT 9999 FEW020 16/13 Q1018

Ora: 01:24 (23:24 UTC)

Previsione

Il bollettino è stato emesso 9 ore e 24 minuti fa, alle 14:00 UTC
Previsione valida dal 15 alle 15 UTC al 15 alle 24 UTC
Vento 16 kt da ovest
Visibilità 10 km o più
Poco nuvoloso ad un'altezza di 5000 ft
Evoluzione graduale
dal 15 alle 18 UTC al 15 alle 20 UTC
Vento 5 kt da direzioni variabili

TAF: LICG 151400Z 1515/1524 28016KT 9999 FEW050 BECMG 1518/1520 VRB05KT

Osservazioni e previsioni meteorologiche di più di 4000 aeroporti (messaggi METAR e TAF).

Le stazioni disponibili sono rappresentate dai dischi gialli e rossi sulla carta.

Puntare il mouse per vedere il nome della stazione.

Clicca sopra per visualizzare le osservazioni e previsioni meteorologiche.

Per cambiare la mappa : fare clic sui pulsanti verdi con una croce nera per ingrandire, il pulsante verde con un trattino per diminuire, o sulla freccia verde per le mappe adiacenti.


METAR-TAF: